Time;durP1;ratioP1;P1;durP2;ratioP2;P2;SDS_P1;SDS_P2;PMS_P1;PMS_P2;Temp;Humidity;BMP_temperature;BMP_pressure;BME280_temperature;BME280_humidity;BME280_pressure;Samples;Min_cycle;Max_cycle;Signal;HPM_P1;HPM_P2
2021/06/29 00:02:23;;;;;;;3.90;3.10;;;18.80;99.90;;;;;;5053984;28;20371;-74
2021/06/29 00:04:49;;;;;;;5.78;2.88;;;18.90;99.90;;;;;;5052723;28;20030;-74
2021/06/29 00:07:14;;;;;;;10.68;3.55;;;19.10;99.90;;;;;;5052716;28;20040;-74
2021/06/29 00:09:40;;;;;;;9.20;3.80;;;19.10;99.90;;;;;;5052041;28;20476;-74
2021/06/29 00:12:06;;;;;;;4.93;3.35;;;18.90;99.90;;;;;;5050761;28;20012;-74
2021/06/29 00:14:31;;;;;;;3.95;3.33;;;18.80;99.90;;;;;;5065800;28;20063;-74
2021/06/29 00:16:57;;;;;;;5.50;3.85;;;18.80;99.90;;;;;;5059681;28;20035;-74
2021/06/29 00:19:22;;;;;;;7.90;3.85;;;18.50;99.90;;;;;;5062937;28;20032;-74
2021/06/29 00:21:48;;;;;;;7.43;3.75;;;18.40;99.90;;;;;;5049209;28;20411;-74
2021/06/29 00:24:14;;;;;;;5.75;3.33;;;18.40;99.90;;;;;;5060783;28;20047;-73
2021/06/29 00:26:40;;;;;;;4.68;3.30;;;18.30;99.90;;;;;;5064790;28;20032;-75
2021/06/29 00:29:06;;;;;;;4.35;2.70;;;18.30;99.90;;;;;;5060090;28;20025;-75
2021/06/29 00:31:32;;;;;;;4.03;2.60;;;18.40;99.90;;;;;;5048719;28;20025;-74
2021/06/29 00:33:57;;;;;;;2.88;2.53;;;18.50;99.90;;;;;;5059367;28;20036;-75
2021/06/29 00:36:23;;;;;;;4.75;2.53;;;18.60;99.90;;;;;;5053427;28;20025;-74
2021/06/29 00:38:48;;;;;;;3.53;2.60;;;18.60;99.90;;;;;;5055040;28;20030;-74
2021/06/29 00:41:14;;;;;;;3.17;2.80;;;18.60;99.90;;;;;;5058861;28;20046;-74
2021/06/29 00:43:54;;;;;;;4.65;2.38;;;18.60;99.90;;;;;;5059258;28;20052;-74
2021/06/29 00:46:20;;;;;;;2.60;2.40;;;18.50;99.90;;;;;;5052366;28;20025;-72
2021/06/29 00:48:47;;;;;;;2.80;2.58;;;18.50;99.90;;;;;;5045063;28;20052;-72
2021/06/29 00:51:17;;;;;;;3.47;2.47;;;18.70;99.90;;;;;;5041933;28;20048;-72
2021/06/29 00:53:44;;;;;;;3.25;2.33;;;18.50;99.90;;;;;;5044713;28;20083;-73
2021/06/29 00:56:13;;;;;;;2.95;2.10;;;18.40;99.90;;;;;;5048952;28;20025;-71
2021/06/29 00:58:47;;;;;;;3.80;2.60;;;18.50;99.90;;;;;;5046022;28;20036;-73
2021/06/29 01:01:13;;;;;;;4.50;2.22;;;18.40;99.90;;;;;;5041686;28;20053;-72
2021/06/29 01:03:41;;;;;;;3.20;2.25;;;18.40;99.90;;;;;;5043372;28;20048;-70
2021/06/29 01:06:11;;;;;;;6.43;2.55;;;18.40;99.90;;;;;;5048269;28;20032;-71
2021/06/29 01:08:38;;;;;;;3.90;2.50;;;18.40;99.90;;;;;;5047570;28;20398;-71
2021/06/29 01:11:04;;;;;;;4.53;3.00;;;18.20;99.90;;;;;;5041398;28;20052;-71
2021/06/29 01:13:34;;;;;;;5.18;3.20;;;18.00;99.90;;;;;;5042226;28;20057;-70
2021/06/29 01:16:02;;;;;;;3.35;2.70;;;17.90;99.90;;;;;;5034812;28;20033;-73
2021/06/29 01:18:28;;;;;;;3.65;3.10;;;17.90;99.90;;;;;;5046943;28;20440;-74
2021/06/29 01:20:54;;;;;;;6.35;3.33;;;17.80;99.90;;;;;;5034704;28;20108;-73
2021/06/29 01:23:23;;;;;;;3.58;2.60;;;17.80;99.90;;;;;;5047620;28;20028;-73
2021/06/29 01:26:10;;;;;;;4.00;2.35;;;18.00;99.90;;;;;;5053319;28;20144;-73
2021/06/29 01:31:21;;;;;;;3.17;2.88;;;18.10;99.90;;;;;;5041322;28;20036;-73
2021/06/29 01:33:47;;;;;;;3.53;3.10;;;18.20;99.90;;;;;;5053135;28;20024;-72
2021/06/29 01:36:17;;;;;;;4.63;2.97;;;18.10;99.90;;;;;;5054393;28;20035;-72
2021/06/29 01:38:44;;;;;;;3.30;2.85;;;18.20;99.90;;;;;;5052998;28;20024;-72
2021/06/29 01:41:20;;;;;;;3.17;2.92;;;18.10;99.90;;;;;;5040793;28;20426;-73
2021/06/29 01:46:16;;;;;;;3.45;3.13;;;17.80;99.90;;;;;;5038705;28;20422;-75
2021/06/29 01:48:50;;;;;;;4.60;3.65;;;18.00;99.90;;;;;;5043531;28;20021;-75
2021/06/29 01:51:16;;;;;;;4.45;2.85;;;18.20;99.90;;;;;;5039727;28;20382;-75
2021/06/29 01:53:45;;;;;;;3.10;2.80;;;18.20;99.90;;;;;;5043980;28;20495;-74
2021/06/29 01:56:26;;;;;;;4.38;2.83;;;18.30;99.90;;;;;;5046105;28;20035;-74
2021/06/29 01:58:54;;;;;;;3.55;3.03;;;18.40;99.90;;;;;;5046969;28;20600;-74
2021/06/29 02:01:21;;;;;;;4.85;3.42;;;18.50;99.90;;;;;;5040587;28;20021;-75
2021/06/29 02:03:47;;;;;;;4.15;2.70;;;18.50;99.90;;;;;;5040776;28;20030;-74
2021/06/29 02:06:14;;;;;;;4.95;2.85;;;18.40;99.90;;;;;;5047026;28;20116;-73
2021/06/29 02:08:41;;;;;;;3.80;3.03;;;18.60;99.90;;;;;;5047231;28;20538;-74
2021/06/29 02:11:06;;;;;;;5.45;3.60;;;18.90;99.90;;;;;;5040852;28;20521;-74
2021/06/29 02:13:32;;;;;;;3.80;3.40;;;18.80;99.90;;;;;;5040421;28;20022;-74
2021/06/29 02:15:59;;;;;;;6.13;3.53;;;18.60;99.90;;;;;;5046886;28;20034;-74
2021/06/29 02:18:24;;;;;;;3.90;3.50;;;18.80;99.90;;;;;;5046073;28;20494;-74
2021/06/29 02:20:50;;;;;;;4.78;3.58;;;18.80;99.90;;;;;;5040347;28;20059;-73
2021/06/29 02:23:16;;;;;;;6.15;4.30;;;19.00;99.90;;;;;;5053529;28;20101;-73
2021/06/29 02:25:42;;;;;;;5.55;4.30;;;18.60;99.90;;;;;;5053243;28;20025;-73
2021/06/29 02:28:08;;;;;;;5.28;4.03;;;18.30;99.90;;;;;;5038615;28;20059;-73
2021/06/29 02:30:34;;;;;;;5.80;4.88;;;18.40;99.90;;;;;;5033318;28;20028;-73
2021/06/29 02:33:00;;;;;;;6.20;4.32;;;18.40;99.90;;;;;;5045535;28;20024;-72
2021/06/29 02:35:25;;;;;;;5.15;4.63;;;18.20;99.90;;;;;;5038898;28;20032;-73
2021/06/29 02:37:51;;;;;;;5.88;4.00;;;18.40;99.90;;;;;;5053410;28;20079;-73
2021/06/29 02:40:16;;;;;;;6.82;4.07;;;18.40;99.90;;;;;;5033037;28;20495;-73
2021/06/29 02:42:42;;;;;;;3.90;3.50;;;18.50;99.90;;;;;;5045077;28;20516;-75
2021/06/29 02:45:08;;;;;;;5.82;4.63;;;18.60;99.90;;;;;;5046567;28;20384;-75
2021/06/29 02:47:37;;;;;;;5.65;4.88;;;18.70;99.90;;;;;;5045007;28;20099;-74
2021/06/29 02:50:05;;;;;;;4.90;4.40;;;18.30;99.90;;;;;;5039675;28;20021;-74
2021/06/29 02:52:32;;;;;;;8.90;5.35;;;18.00;99.90;;;;;;5039470;28;20128;-74
2021/06/29 02:54:59;;;;;;;4.72;4.32;;;18.00;99.90;;;;;;5052997;28;20032;-74
2021/06/29 02:57:24;;;;;;;14.32;4.70;;;18.00;99.90;;;;;;5039501;28;20511;-76
2021/06/29 02:59:50;;;;;;;4.93;4.43;;;17.90;99.90;;;;;;5045576;28;20108;-75
2021/06/29 03:02:15;;;;;;;5.15;4.50;;;17.90;99.90;;;;;;5031874;28;20400;-76
2021/06/29 03:04:41;;;;;;;5.60;4.80;;;18.20;99.90;;;;;;5044715;28;20372;-76
2021/06/29 03:07:06;;;;;;;6.20;5.60;;;18.40;99.90;;;;;;5044850;28;20119;-76
2021/06/29 03:09:32;;;;;;;7.07;5.43;;;18.10;99.90;;;;;;5038956;28;20025;-74
2021/06/29 03:11:58;;;;;;;7.00;6.13;;;18.00;99.90;;;;;;5039887;28;20075;-74
2021/06/29 03:14:23;;;;;;;7.50;6.65;;;17.90;99.90;;;;;;5044641;28;20120;-73
2021/06/29 03:16:49;;;;;;;8.23;6.72;;;17.80;99.90;;;;;;5045565;28;20103;-74
2021/06/29 03:19:14;;;;;;;6.93;6.20;;;17.90;99.90;;;;;;5039148;28;20072;-74
2021/06/29 03:21:40;;;;;;;9.27;7.43;;;17.90;99.90;;;;;;5039322;28;20032;-74
2021/06/29 03:24:07;;;;;;;7.03;6.30;;;18.00;99.90;;;;;;5037789;28;20029;-74
2021/06/29 03:26:32;;;;;;;9.50;6.65;;;18.10;99.90;;;;;;5038133;28;20115;-75
2021/06/29 03:28:58;;;;;;;7.78;6.88;;;17.80;99.90;;;;;;5044444;28;20495;-74
2021/06/29 03:31:23;;;;;;;7.60;6.80;;;17.70;99.90;;;;;;5044253;28;20091;-75
2021/06/29 03:33:49;;;;;;;9.18;6.68;;;17.80;99.90;;;;;;5044902;28;20018;-75
2021/06/29 03:36:14;;;;;;;7.13;6.43;;;17.90;99.90;;;;;;5045937;28;20638;-75
2021/06/29 03:38:40;;;;;;;7.65;6.90;;;17.60;99.90;;;;;;5039226;28;20479;-75
2021/06/29 03:41:06;;;;;;;9.43;6.38;;;17.40;99.90;;;;;;5038812;28;20087;-75
2021/06/29 03:43:34;;;;;;;10.13;7.38;;;17.30;99.90;;;;;;5052020;28;20407;-76
2021/06/29 03:46:01;;;;;;;9.50;8.35;;;17.40;99.90;;;;;;5038269;28;20025;-75
2021/06/29 03:48:26;;;;;;;10.90;9.05;;;17.30;99.90;;;;;;5039124;28;20364;-75
2021/06/29 03:50:52;;;;;;;11.73;9.98;;;17.40;99.90;;;;;;5038446;28;20028;-74
2021/06/29 03:53:17;;;;;;;13.98;12.27;;;17.50;99.90;;;;;;5045297;28;20040;-74
2021/06/29 03:55:43;;;;;;;15.70;12.32;;;17.30;99.90;;;;;;5044684;28;20033;-73
2021/06/29 03:58:08;;;;;;;17.77;12.60;;;17.40;99.90;;;;;;5037147;28;20466;-74
2021/06/29 04:00:34;;;;;;;14.73;13.20;;;17.30;99.90;;;;;;5038921;28;20041;-73
2021/06/29 04:02:59;;;;;;;16.60;13.05;;;17.40;99.90;;;;;;5045380;28;20026;-74
2021/06/29 04:05:25;;;;;;;16.73;13.85;;;17.40;99.90;;;;;;5044551;28;20029;-75
2021/06/29 04:07:50;;;;;;;11.32;10.23;;;17.50;99.90;;;;;;5038381;28;20033;-75
2021/06/29 04:10:16;;;;;;;13.95;10.98;;;17.50;99.90;;;;;;5037436;28;20033;-74
2021/06/29 04:12:42;;;;;;;12.75;11.50;;;17.60;99.90;;;;;;5044058;28;20076;-74
2021/06/29 04:15:09;;;;;;;12.18;11.05;;;17.60;99.90;;;;;;5044121;28;20029;-75
2021/06/29 04:17:35;;;;;;;13.15;11.55;;;17.50;99.90;;;;;;5037038;28;20025;-75
2021/06/29 04:20:01;;;;;;;14.13;11.48;;;17.60;99.90;;;;;;5037835;28;20030;-75
2021/06/29 04:22:27;;;;;;;12.95;11.70;;;17.50;99.90;;;;;;5045233;28;20029;-76
2021/06/29 04:24:52;;;;;;;13.70;11.80;;;17.60;99.90;;;;;;5043651;28;20065;-76
2021/06/29 04:27:22;;;;;;;11.82;10.27;;;17.60;99.90;;;;;;5046209;28;20021;-75
2021/06/29 04:29:47;;;;;;;12.38;10.43;;;17.60;99.90;;;;;;5043987;28;20013;-76
2021/06/29 04:32:13;;;;;;;13.00;11.57;;;17.80;99.90;;;;;;5038358;28;20391;-74
2021/06/29 04:34:38;;;;;;;12.75;11.10;;;18.00;99.90;;;;;;5039159;28;20068;-76
2021/06/29 04:37:04;;;;;;;12.40;11.15;;;17.90;99.90;;;;;;5044953;28;20029;-74
2021/06/29 04:39:30;;;;;;;15.60;12.63;;;17.90;99.90;;;;;;5043543;28;20029;-74
2021/06/29 04:41:55;;;;;;;15.18;12.00;;;17.90;99.90;;;;;;5032853;28;20476;-74
2021/06/29 04:44:21;;;;;;;12.77;11.57;;;17.90;99.90;;;;;;5030270;28;20034;-75
2021/06/29 04:46:49;;;;;;;13.35;12.00;;;18.00;99.90;;;;;;5051432;28;20383;-75
2021/06/29 04:49:16;;;;;;;14.65;13.15;;;18.00;99.90;;;;;;5036320;28;20032;-74
2021/06/29 04:51:41;;;;;;;14.20;12.55;;;18.10;99.90;;;;;;5038497;28;20013;-74
2021/06/29 04:54:07;;;;;;;17.73;13.90;;;18.10;99.90;;;;;;5037798;28;20025;-75
2021/06/29 04:56:32;;;;;;;18.10;14.68;;;18.10;99.90;;;;;;5038350;28;20090;-74
2021/06/29 04:58:58;;;;;;;16.33;14.63;;;18.00;99.90;;;;;;5037881;28;20025;-75
2021/06/29 05:01:24;;;;;;;15.05;13.05;;;17.90;99.90;;;;;;5036468;28;20548;-75
2021/06/29 05:03:50;;;;;;;14.65;13.25;;;17.90;99.90;;;;;;5051391;28;20074;-75
2021/06/29 05:06:16;;;;;;;15.25;13.65;;;18.00;99.90;;;;;;5044489;28;20491;-75
2021/06/29 05:08:42;;;;;;;14.45;12.68;;;17.90;99.90;;;;;;5047580;28;20060;-76
2021/06/29 05:11:09;;;;;;;15.18;13.57;;;17.90;99.90;;;;;;5041282;28;20514;-75
2021/06/29 05:13:34;;;;;;;14.82;13.18;;;18.00;99.90;;;;;;5040757;28;20033;-75
2021/06/29 05:16:00;;;;;;;14.25;12.77;;;17.90;99.90;;;;;;5048159;28;20025;-75
2021/06/29 05:18:25;;;;;;;16.48;14.10;;;17.90;99.90;;;;;;5035087;28;20037;-74
2021/06/29 05:20:51;;;;;;;16.00;14.32;;;17.90;99.90;;;;;;5040706;28;20056;-75
2021/06/29 05:23:17;;;;;;;14.15;12.73;;;17.90;99.90;;;;;;5040826;28;20514;-75
2021/06/29 05:25:42;;;;;;;14.30;12.90;;;17.90;99.90;;;;;;5046646;28;20037;-75
2021/06/29 05:28:08;;;;;;;14.95;13.30;;;17.90;99.90;;;;;;5034840;28;20495;-76
2021/06/29 05:30:34;;;;;;;15.38;13.88;;;18.10;99.90;;;;;;5047805;28;20025;-75
2021/06/29 05:32:59;;;;;;;14.60;13.20;;;18.10;99.90;;;;;;5047325;28;20029;-74
2021/06/29 05:35:25;;;;;;;15.07;13.27;;;18.10;99.90;;;;;;5049038;28;20060;-76
2021/06/29 05:37:51;;;;;;;13.85;12.40;;;18.20;99.90;;;;;;5046921;28;20108;-75
2021/06/29 05:40:16;;;;;;;14.82;13.40;;;18.20;99.90;;;;;;5052888;28;20052;-75
2021/06/29 05:42:42;;;;;;;16.63;14.40;;;18.20;99.90;;;;;;5054544;28;20473;-76
2021/06/29 05:45:09;;;;;;;15.32;13.82;;;18.10;99.90;;;;;;5048469;28;20108;-74
2021/06/29 05:47:36;;;;;;;17.73;16.08;;;18.10;99.90;;;;;;5047608;28;20028;-74
2021/06/29 05:50:04;;;;;;;20.60;16.80;;;18.10;99.90;;;;;;5040764;28;20043;-74
2021/06/29 05:52:30;;;;;;;16.42;14.80;;;18.10;99.90;;;;;;5039978;28;20063;-74
2021/06/29 05:54:56;;;;;;;16.67;15.02;;;18.30;99.90;;;;;;5047845;28;20104;-74
2021/06/29 05:57:21;;;;;;;17.85;16.10;;;18.10;99.90;;;;;;5047358;28;20494;-71
2021/06/29 05:59:47;;;;;;;17.08;15.27;;;18.10;99.90;;;;;;5052704;28;20090;-71
2021/06/29 06:02:12;;;;;;;19.13;14.57;;;18.10;99.90;;;;;;5040870;28;20045;-74
2021/06/29 06:04:39;;;;;;;15.82;14.32;;;18.00;99.90;;;;;;5047352;28;20026;-74
2021/06/29 06:07:05;;;;;;;16.48;14.88;;;18.10;99.90;;;;;;5032642;28;20040;-75
2021/06/29 06:09:31;;;;;;;15.48;13.93;;;18.20;99.90;;;;;;5033694;28;20014;-75
2021/06/29 06:11:57;;;;;;;15.15;13.65;;;18.30;99.90;;;;;;5047218;28;20379;-75
2021/06/29 06:14:23;;;;;;;16.23;14.55;;;18.30;99.90;;;;;;5040258;28;20032;-74
2021/06/29 06:16:48;;;;;;;17.10;15.35;;;18.30;99.90;;;;;;5040784;28;20080;-75
2021/06/29 06:19:14;;;;;;;14.73;11.95;;;18.20;99.90;;;;;;5037846;28;20082;-74
2021/06/29 06:21:40;;;;;;;14.45;12.95;;;18.40;99.90;;;;;;5041254;28;20103;-74
2021/06/29 06:24:06;;;;;;;15.80;14.20;;;18.40;99.90;;;;;;5039556;28;20406;-75
2021/06/29 06:26:32;;;;;;;14.20;12.90;;;18.30;99.90;;;;;;5053579;28;20496;-74
2021/06/29 06:28:57;;;;;;;15.90;14.40;;;18.40;99.90;;;;;;5038889;28;20025;-74
2021/06/29 06:31:23;;;;;;;14.85;13.18;;;18.60;99.90;;;;;;5040364;28;20450;-73
2021/06/29 06:33:48;;;;;;;14.00;12.55;;;18.70;99.90;;;;;;5046922;28;20029;-73
2021/06/29 06:36:14;;;;;;;14.45;12.95;;;18.90;99.90;;;;;;5045886;28;20025;-73
2021/06/29 06:38:40;;;;;;;13.73;12.48;;;18.90;99.90;;;;;;5040178;28;20123;-73
2021/06/29 06:41:05;;;;;;;13.30;11.90;;;18.90;99.90;;;;;;5053157;28;20029;-74
2021/06/29 06:43:31;;;;;;;13.05;11.68;;;18.70;99.90;;;;;;5047115;28;20082;-74
2021/06/29 06:45:57;;;;;;;12.55;11.32;;;18.60;99.90;;;;;;5047794;28;20056;-74
2021/06/29 06:48:22;;;;;;;13.90;12.60;;;18.60;99.90;;;;;;5039745;28;20108;-74
2021/06/29 06:50:48;;;;;;;16.30;13.07;;;18.70;99.90;;;;;;5039978;28;20055;-74
2021/06/29 06:53:14;;;;;;;14.57;13.07;;;18.80;99.90;;;;;;5049963;28;20075;-75
2021/06/29 06:55:40;;;;;;;14.05;12.75;;;19.20;99.90;;;;;;5039552;28;20037;-74
2021/06/29 06:58:06;;;;;;;14.07;12.77;;;19.50;99.90;;;;;;5046141;28;20577;-74
2021/06/29 07:00:32;;;;;;;18.20;14.55;;;19.40;99.90;;;;;;5054900;28;20528;-74
2021/06/29 07:02:57;;;;;;;12.93;11.68;;;19.60;99.90;;;;;;5046221;28;20099;-74
2021/06/29 07:05:23;;;;;;;12.68;11.48;;;19.50;99.90;;;;;;5045635;28;20029;-74
2021/06/29 07:07:49;;;;;;;13.65;12.35;;;19.80;99.90;;;;;;5046135;28;20041;-74
2021/06/29 07:10:15;;;;;;;14.45;13.05;;;19.50;99.90;;;;;;5045766;28;20398;-74
2021/06/29 07:12:40;;;;;;;11.55;10.38;;;19.40;99.90;;;;;;5039160;28;20067;-74
2021/06/29 07:15:07;;;;;;;12.65;11.15;;;19.60;99.90;;;;;;5039516;28;20040;-74
2021/06/29 07:17:34;;;;;;;12.05;10.27;;;19.60;99.90;;;;;;5046094;28;20033;-74
2021/06/29 07:20:00;;;;;;;8.38;7.68;;;19.60;99.90;;;;;;5045732;28;20399;-74
2021/06/29 07:22:26;;;;;;;8.98;8.07;;;19.30;99.90;;;;;;5039212;28;20029;-73
2021/06/29 07:24:51;;;;;;;8.40;7.53;;;19.30;99.90;;;;;;5038841;28;20040;-74
2021/06/29 07:27:17;;;;;;;9.18;8.27;;;19.30;99.90;;;;;;5045760;28;20022;-74
2021/06/29 07:29:43;;;;;;;8.65;7.90;;;19.20;99.90;;;;;;5044206;28;20025;-74
2021/06/29 07:32:09;;;;;;;7.38;6.68;;;19.60;99.90;;;;;;5030690;28;20257;-73
2021/06/29 07:34:35;;;;;;;8.73;7.55;;;19.20;99.90;;;;;;5045716;28;20047;-74
2021/06/29 07:37:00;;;;;;;8.48;7.72;;;19.10;99.90;;;;;;5045340;28;20033;-73
2021/06/29 07:39:26;;;;;;;8.32;7.63;;;19.40;99.90;;;;;;5045366;28;20035;-73
2021/06/29 07:41:52;;;;;;;9.35;8.45;;;19.40;99.90;;;;;;5038667;28;20021;-74
2021/06/29 07:44:17;;;;;;;8.77;8.07;;;19.50;99.90;;;;;;5038883;28;20060;-74
2021/06/29 07:46:43;;;;;;;8.45;7.60;;;19.60;99.90;;;;;;5045228;28;20025;-72
2021/06/29 07:49:08;;;;;;;11.38;7.15;;;19.60;99.90;;;;;;5043208;28;20122;-72
2021/06/29 07:51:34;;;;;;;8.27;7.28;;;19.50;99.90;;;;;;5033205;28;20025;-73
2021/06/29 07:54:00;;;;;;;8.35;7.20;;;19.50;99.90;;;;;;5055222;28;20025;-74
2021/06/29 07:56:26;;;;;;;7.95;6.90;;;19.80;99.90;;;;;;5045150;28;20036;-73
2021/06/29 07:58:52;;;;;;;7.70;6.97;;;19.90;99.90;;;;;;5064736;28;20020;-73
2021/06/29 08:01:18;;;;;;;7.60;6.47;;;20.10;99.90;;;;;;5054703;28;20110;-73
2021/06/29 08:03:45;;;;;;;7.82;6.35;;;20.60;99.90;;;;;;5056145;28;20029;-73
2021/06/29 08:06:11;;;;;;;6.45;5.85;;;20.80;99.90;;;;;;5049545;28;20028;-73
2021/06/29 08:08:37;;;;;;;11.70;6.55;;;20.40;99.90;;;;;;5051936;28;20087;-73
2021/06/29 08:11:05;;;;;;;6.13;5.30;;;20.40;99.90;;;;;;5041769;28;20439;-73
2021/06/29 08:13:31;;;;;;;5.93;5.43;;;21.00;99.90;;;;;;5044848;28;20368;-74
2021/06/29 08:15:57;;;;;;;6.20;5.57;;;21.40;99.90;;;;;;5045420;28;20025;-73
2021/06/29 08:18:24;;;;;;;5.93;5.32;;;21.30;99.90;;;;;;5044425;28;20108;-74
2021/06/29 08:20:51;;;;;;;5.63;5.13;;;21.70;99.90;;;;;;5038016;28;20029;-73
2021/06/29 08:23:16;;;;;;;7.25;5.00;;;21.80;99.90;;;;;;5037388;28;20029;-74
2021/06/29 08:25:43;;;;;;;5.43;4.93;;;21.90;99.90;;;;;;5043904;28;20400;-73
2021/06/29 08:28:11;;;;;;;5.70;5.20;;;21.80;99.90;;;;;;5044841;28;20021;-74
2021/06/29 08:30:36;;;;;;;6.45;5.63;;;21.60;99.90;;;;;;5038192;28;20018;-74
2021/06/29 08:33:02;;;;;;;5.43;4.95;;;21.10;99.90;;;;;;5038196;28;20753;-73
2021/06/29 08:35:28;;;;;;;5.55;4.63;;;21.20;99.90;;;;;;5044708;28;20029;-73
2021/06/29 08:37:53;;;;;;;5.10;4.60;;;21.70;99.90;;;;;;5044891;28;20083;-73
2021/06/29 08:40:19;;;;;;;9.35;4.55;;;22.00;99.90;;;;;;5043979;28;20030;-75
2021/06/29 08:42:47;;;;;;;5.88;5.10;;;22.00;99.90;;;;;;5047467;28;20475;-76
2021/06/29 08:45:16;;;;;;;4.95;4.50;;;22.10;99.90;;;;;;5061526;28;20545;-75
2021/06/29 08:47:42;;;;;;;4.97;4.50;;;22.00;99.90;;;;;;5036133;28;20021;-74
2021/06/29 08:50:12;;;;;;;5.25;4.63;;;22.10;99.90;;;;;;5041357;28;20020;-74
2021/06/29 08:52:37;;;;;;;5.63;4.95;;;22.10;99.90;;;;;;5052980;28;20522;-75
2021/06/29 08:55:08;;;;;;;5.25;4.60;;;21.70;99.90;;;;;;5042783;28;20025;-75
2021/06/29 08:57:33;;;;;;;5.38;4.18;;;21.80;99.90;;;;;;5041797;28;20034;-74
2021/06/29 09:00:00;;;;;;;6.18;4.85;;;21.60;99.90;;;;;;5046809;28;20039;-74
2021/06/29 09:02:26;;;;;;;4.97;4.47;;;21.40;99.90;;;;;;5048659;28;20025;-72
2021/06/29 09:05:00;;;;;;;5.78;5.18;;;21.10;99.90;;;;;;5033904;28;20080;-72
2021/06/29 09:07:29;;;;;;;5.28;4.80;;;21.10;99.90;;;;;;5048288;28;20032;-73
2021/06/29 09:09:59;;;;;;;5.35;4.85;;;21.10;99.90;;;;;;5045186;28;20526;-72
2021/06/29 09:12:40;;;;;;;5.10;4.70;;;21.00;99.90;;;;;;5041676;28;20112;-72
2021/06/29 09:15:28;;;;;;;5.10;4.60;;;21.10;99.90;;;;;;5042058;28;20022;-73
2021/06/29 09:17:57;;;;;;;5.70;4.55;;;21.10;99.90;;;;;;5044513;28;20364;-73
2021/06/29 09:20:31;;;;;;;6.68;4.88;;;21.30;99.90;;;;;;5041149;28;20021;-73
2021/06/29 09:23:06;;;;;;;6.38;4.80;;;21.20;99.90;;;;;;5054897;28;20082;-72
2021/06/29 09:25:32;;;;;;;5.20;4.80;;;21.60;99.90;;;;;;5036101;28;20428;-72
2021/06/29 09:27:58;;;;;;;5.63;4.43;;;21.70;99.90;;;;;;5046836;28;20017;-73
2021/06/29 09:30:33;;;;;;;5.25;4.75;;;21.80;99.90;;;;;;5041150;28;20075;-72
2021/06/29 09:33:06;;;;;;;5.80;4.55;;;21.40;99.90;;;;;;5040178;28;20017;-74
2021/06/29 09:35:32;;;;;;;5.28;4.85;;;21.60;99.90;;;;;;5042117;28;20482;-73
2021/06/29 09:37:58;;;;;;;5.57;4.70;;;21.80;99.90;;;;;;5041257;28;20033;-72
2021/06/29 09:40:30;;;;;;;5.85;4.60;;;22.20;99.90;;;;;;5045720;28;20029;-72
2021/06/29 09:43:16;;;;;;;6.95;5.07;;;22.10;99.90;;;;;;5051122;28;20017;-72
2021/06/29 09:45:51;;;;;;;5.97;4.80;;;22.20;99.90;;;;;;5074262;28;20025;-72
2021/06/29 09:48:27;;;;;;;6.70;5.47;;;22.10;99.90;;;;;;5049416;28;20100;-73
2021/06/29 09:50:54;;;;;;;6.90;5.15;;;21.90;99.90;;;;;;5047959;28;20067;-75
2021/06/29 09:53:30;;;;;;;5.50;5.00;;;21.60;99.90;;;;;;5054005;28;20462;-74
2021/06/29 09:56:02;;;;;;;4.70;4.32;;;21.20;99.90;;;;;;5040300;28;20484;-74
2021/06/29 09:58:31;;;;;;;5.28;4.75;;;21.80;99.90;;;;;;5045451;28;20034;-74
2021/06/29 10:01:01;;;;;;;8.55;5.32;;;22.20;99.90;;;;;;5047578;28;20028;-74
2021/06/29 10:03:38;;;;;;;5.22;4.68;;;22.10;99.90;;;;;;5043843;28;20022;-73
2021/06/29 10:06:14;;;;;;;6.55;4.53;;;22.30;99.90;;;;;;5040506;28;20028;-74
2021/06/29 10:08:45;;;;;;;5.22;4.78;;;23.10;99.90;;;;;;5041064;28;20044;-74
2021/06/29 10:11:13;;;;;;;5.18;4.45;;;23.60;99.90;;;;;;5040662;28;20028;-74
2021/06/29 10:13:55;;;;;;;4.85;4.45;;;23.50;99.90;;;;;;5040344;28;20060;-74
2021/06/29 10:16:26;;;;;;;5.38;4.35;;;23.60;99.90;;;;;;5044474;28;20087;-74
2021/06/29 10:21:27;;;;;;;4.75;4.20;;;22.50;99.90;;;;;;5045090;28;20033;-74
2021/06/29 10:23:57;;;;;;;4.82;4.05;;;22.60;99.90;;;;;;5040413;28;20046;-74
2021/06/29 10:26:25;;;;;;;4.35;4.00;;;22.60;99.90;;;;;;5041027;28;20507;-73
2021/06/29 10:28:51;;;;;;;4.10;3.80;;;22.30;99.90;;;;;;5045516;28;20025;-74
2021/06/29 10:31:24;;;;;;;5.55;4.45;;;22.40;99.90;;;;;;5044624;28;20509;-74
2021/06/29 10:33:51;;;;;;;4.60;4.10;;;22.60;99.90;;;;;;5039053;28;20029;-74
2021/06/29 10:36:19;;;;;;;4.68;4.22;;;22.40;99.90;;;;;;5039973;28;20112;-75
2021/06/29 10:38:44;;;;;;;4.68;4.18;;;22.20;99.90;;;;;;5044601;28;20034;-74
2021/06/29 10:41:11;;;;;;;4.95;4.15;;;22.90;99.90;;;;;;5046592;28;20398;-74
2021/06/29 10:43:39;;;;;;;4.07;3.78;;;23.50;99.90;;;;;;5040693;28;20493;-74
2021/06/29 10:46:04;;;;;;;3.85;3.50;;;23.50;99.90;;;;;;5039037;28;20030;-74
2021/06/29 10:48:31;;;;;;;3.97;3.67;;;23.40;99.90;;;;;;5040286;28;20079;-74
2021/06/29 10:50:59;;;;;;;3.88;3.47;;;23.70;99.90;;;;;;5039533;28;20048;-74
2021/06/29 10:53:45;;;;;;;3.80;3.40;;;24.40;99.90;;;;;;5043821;28;20026;-74
2021/06/29 10:56:16;;;;;;;4.50;4.10;;;25.00;99.90;;;;;;5044843;28;20033;-74
2021/06/29 10:58:51;;;;;;;6.15;4.00;;;24.80;99.90;;;;;;5042852;28;20033;-75
2021/06/29 11:01:30;;;;;;;4.82;4.30;;;24.50;99.90;;;;;;5046931;28;20026;-74
2021/06/29 11:03:59;;;;;;;5.53;4.18;;;24.50;99.90;;;;;;5046505;28;20425;-74
2021/06/29 11:06:37;;;;;;;4.10;3.78;;;24.50;99.90;;;;;;5040642;28;20108;-74
2021/06/29 11:09:04;;;;;;;5.38;3.45;;;24.50;99.90;;;;;;5039023;28;20438;-75
2021/06/29 11:11:31;;;;;;;4.90;3.85;;;24.70;99.90;;;;;;5043108;28;20037;-74
2021/06/29 11:13:57;;;;;;;4.25;3.85;;;24.90;99.90;;;;;;5045929;28;20431;-75
2021/06/29 11:16:53;;;;;;;3.60;3.30;;;25.00;99.90;;;;;;5042225;28;20406;-75
2021/06/29 11:19:19;;;;;;;3.00;2.80;;;25.40;99.90;;;;;;5043459;28;20032;-76
2021/06/29 11:21:45;;;;;;;3.10;2.75;;;25.30;99.90;;;;;;5039645;28;20495;-73
2021/06/29 11:24:42;;;;;;;4.00;3.10;;;25.50;99.90;;;;;;5042199;28;20036;-75
2021/06/29 11:27:08;;;;;;;3.10;2.65;;;25.60;99.90;;;;;;5042415;28;20063;-74
2021/06/29 11:29:38;;;;;;;2.83;2.60;;;25.70;99.90;;;;;;5043270;28;20025;-74
2021/06/29 11:32:27;;;;;;;3.10;2.78;;;25.60;99.90;;;;;;5046868;28;20025;-75
2021/06/29 11:34:52;;;;;;;4.25;2.80;;;25.80;99.90;;;;;;5042861;28;20082;-74
2021/06/29 11:37:18;;;;;;;2.97;2.50;;;25.50;99.90;;;;;;5040524;28;20029;-74
2021/06/29 11:39:57;;;;;;;3.33;2.53;;;25.70;99.90;;;;;;5038784;28;20480;-74
2021/06/29 11:42:23;;;;;;;2.03;1.92;;;25.60;99.90;;;;;;5042217;28;20018;-75
2021/06/29 11:44:51;;;;;;;3.03;2.38;;;25.60;99.90;;;;;;5061322;28;20032;-74
2021/06/29 11:47:20;;;;;;;2.60;2.40;;;25.80;99.90;;;;;;5040360;28;20028;-74
2021/06/29 11:49:45;;;;;;;2.60;2.15;;;26.00;99.90;;;;;;5045246;28;20045;-74
2021/06/29 11:52:13;;;;;;;3.22;2.60;;;26.20;99.90;;;;;;5043154;28;20055;-74
2021/06/29 11:55:03;;;;;;;2.58;2.08;;;26.10;99.90;;;;;;5038594;28;20576;-73
2021/06/29 11:57:42;;;;;;;2.53;2.33;;;26.70;99.90;;;;;;5048718;28;20387;-74
2021/06/29 12:00:08;;;;;;;2.92;2.00;;;26.30;99.90;;;;;;5050474;28;20028;-74
2021/06/29 12:02:34;;;;;;;2.85;1.92;;;26.50;99.90;;;;;;5038885;28;20014;-74
2021/06/29 12:05:02;;;;;;;2.30;1.77;;;26.40;99.90;;;;;;5041273;28;20036;-74
2021/06/29 12:07:31;;;;;;;3.45;1.90;;;25.90;99.90;;;;;;5045053;28;20083;-75
2021/06/29 12:09:57;;;;;;;1.98;1.88;;;25.80;99.90;;;;;;5042063;28;20023;-75
2021/06/29 12:12:25;;;;;;;2.78;1.90;;;26.20;99.90;;;;;;5038162;28;20017;-75
2021/06/29 12:15:16;;;;;;;1.92;1.83;;;26.00;99.90;;;;;;5039713;28;20487;-74
2021/06/29 12:17:47;;;;;;;3.65;2.30;;;26.30;99.90;;;;;;5038754;28;20062;-74
2021/06/29 12:20:13;;;;;;;2.10;2.00;;;26.50;99.90;;;;;;5036871;28;20028;-74
2021/06/29 12:22:42;;;;;;;2.25;2.00;;;26.70;99.90;;;;;;5042412;28;20521;-74
2021/06/29 12:25:17;;;;;;;1.98;1.73;;;26.60;99.90;;;;;;5044993;28;20029;-74
2021/06/29 12:27:58;;;;;;;2.03;1.92;;;26.80;99.90;;;;;;5041233;28;20087;-75
2021/06/29 12:30:34;;;;;;;2.95;2.17;;;26.50;99.90;;;;;;5038195;28;20051;-74
2021/06/29 12:33:11;;;;;;;1.90;1.80;;;26.80;99.90;;;;;;5038850;28;20104;-74
2021/06/29 12:35:37;;;;;;;2.30;2.10;;;26.60;99.90;;;;;;5037872;28;20025;-74
2021/06/29 12:38:15;;;;;;;1.98;1.88;;;26.60;99.90;;;;;;5038379;28;20044;-75
2021/06/29 12:40:44;;;;;;;2.22;2.03;;;26.50;99.90;;;;;;5042088;28;20030;-74
2021/06/29 12:43:43;;;;;;;1.92;1.83;;;27.30;99.90;;;;;;5051596;28;20107;-74
2021/06/29 12:46:24;;;;;;;1.80;1.70;;;27.10;99.90;;;;;;5045897;28;20036;-74
2021/06/29 12:48:57;;;;;;;2.45;1.95;;;27.70;99.90;;;;;;5041859;28;20502;-74
2021/06/29 12:51:23;;;;;;;2.97;2.08;;;28.00;99.90;;;;;;5037726;28;20471;-74
2021/06/29 12:53:53;;;;;;;2.17;1.98;;;27.90;99.90;;;;;;5040551;28;20028;-74